createdAt,value
2022-07-29T00:00:00.655Z,6.13
2022-07-29T00:02:28.589Z,3.80
2022-07-29T00:04:57.931Z,4.17
2022-07-29T00:07:25.623Z,5.77
2022-07-29T00:09:52.828Z,4.50
2022-07-29T00:12:25.496Z,3.47
2022-07-29T00:14:57.858Z,4.13
2022-07-29T00:17:25.766Z,5.77
2022-07-29T00:19:53.008Z,4.10
2022-07-29T00:22:20.742Z,5.00
2022-07-29T00:24:49.652Z,3.77
2022-07-29T00:27:17.246Z,6.57
2022-07-29T00:29:44.476Z,3.57
2022-07-29T00:32:11.915Z,4.13
2022-07-29T00:34:58.075Z,4.70
2022-07-29T00:37:25.351Z,5.77
2022-07-29T00:39:52.652Z,4.47
2022-07-29T00:42:19.882Z,7.57
2022-07-29T00:44:47.264Z,4.83
2022-07-29T00:47:14.703Z,7.40
2022-07-29T00:49:42.824Z,5.57
2022-07-29T00:52:10.919Z,6.23
2022-07-29T00:54:44.096Z,3.93
2022-07-29T00:57:12.606Z,6.47
2022-07-29T00:59:39.979Z,7.57
2022-07-29T01:02:07.756Z,3.90
2022-07-29T01:04:35.494Z,5.10
2022-07-29T01:07:03.404Z,6.27
2022-07-29T01:09:42.877Z,3.77
2022-07-29T01:12:18.575Z,5.47
2022-07-29T01:14:46.749Z,6.07
2022-07-29T01:17:19.585Z,9.37
2022-07-29T01:19:50.581Z,5.53
2022-07-29T01:22:29.594Z,5.37
2022-07-29T01:25:15.637Z,7.87
2022-07-29T01:27:42.960Z,8.37
2022-07-29T01:30:12.323Z,6.37
2022-07-29T01:32:44.633Z,8.63
2022-07-29T01:35:17.655Z,9.77
2022-07-29T01:37:46.945Z,8.20
2022-07-29T01:40:20.472Z,9.00
2022-07-29T01:42:51.093Z,7.67
2022-07-29T01:45:23.378Z,9.23
2022-07-29T01:48:09.543Z,14.73
2022-07-29T01:50:39.693Z,9.07
2022-07-29T01:53:09.654Z,7.57
2022-07-29T01:55:40.175Z,8.27
2022-07-29T01:58:08.631Z,9.73
2022-07-29T02:00:36.741Z,7.93
2022-07-29T02:03:05.679Z,8.23
2022-07-29T02:05:34.250Z,9.10
2022-07-29T02:08:02.837Z,12.07
2022-07-29T02:10:31.484Z,9.10
2022-07-29T02:13:00.088Z,13.33
2022-07-29T02:15:29.050Z,14.00
2022-07-29T02:18:02.815Z,10.57
2022-07-29T02:20:31.580Z,12.83
2022-07-29T02:23:00.757Z,12.60
2022-07-29T02:25:37.296Z,13.10
2022-07-29T02:28:05.939Z,11.50
2022-07-29T02:30:33.571Z,14.27
2022-07-29T02:33:01.298Z,15.63
2022-07-29T02:35:28.878Z,17.10
2022-07-29T02:38:21.875Z,16.50
2022-07-29T02:40:50.391Z,18.30
2022-07-29T02:43:19.100Z,17.10
2022-07-29T02:45:46.875Z,17.77
2022-07-29T02:48:21.680Z,21.33
2022-07-29T02:50:53.607Z,18.77
2022-07-29T02:53:21.988Z,26.37
2022-07-29T02:55:53.304Z,20.50
2022-07-29T02:58:29.295Z,21.17
2022-07-29T03:01:01.371Z,22.27
2022-07-29T03:03:31.148Z,25.07
2022-07-29T03:05:59.405Z,29.00
2022-07-29T03:08:27.656Z,29.23
2022-07-29T03:10:55.160Z,28.50
2022-07-29T03:13:23.086Z,32.97
2022-07-29T03:15:50.802Z,36.87
2022-07-29T03:18:18.596Z,35.00
2022-07-29T03:20:45.941Z,35.83
2022-07-29T03:23:13.223Z,34.17
2022-07-29T03:25:40.501Z,37.60
2022-07-29T03:28:07.786Z,34.00
2022-07-29T03:30:35.095Z,30.90
2022-07-29T03:33:02.332Z,30.97
2022-07-29T03:35:30.927Z,29.70
2022-07-29T03:37:58.150Z,33.73
2022-07-29T03:40:32.717Z,37.27
2022-07-29T03:43:00.841Z,34.93
2022-07-29T03:45:28.494Z,38.47
2022-07-29T03:48:00.706Z,42.33
2022-07-29T03:50:28.995Z,39.10
2022-07-29T03:52:56.298Z,40.27
2022-07-29T03:55:23.633Z,39.57
2022-07-29T03:57:51.256Z,38.53
2022-07-29T04:00:18.627Z,39.87
2022-07-29T04:02:49.188Z,35.63
2022-07-29T04:05:16.943Z,36.33
2022-07-29T04:07:47.642Z,32.47
2022-07-29T04:10:16.513Z,37.20
2022-07-29T04:12:43.820Z,36.57
2022-07-29T04:15:11.376Z,35.93
2022-07-29T04:17:38.802Z,32.17
2022-07-29T04:20:06.453Z,32.40
2022-07-29T04:22:33.749Z,32.83
2022-07-29T04:25:03.920Z,29.97
2022-07-29T04:27:31.888Z,30.73
2022-07-29T04:29:59.154Z,28.90
2022-07-29T04:32:27.144Z,33.00
2022-07-29T04:34:54.520Z,33.83
2022-07-29T04:37:21.808Z,29.90
2022-07-29T04:39:49.075Z,29.03
2022-07-29T04:42:16.280Z,27.60
2022-07-29T04:44:44.663Z,27.67
2022-07-29T04:47:13.026Z,28.37
2022-07-29T04:49:40.469Z,26.00
2022-07-29T04:52:07.951Z,28.17
2022-07-29T04:54:35.507Z,112.97
2022-07-29T04:57:02.726Z,36.33
2022-07-29T04:59:30.118Z,99.70
2022-07-29T05:01:57.437Z,29.50
2022-07-29T05:04:24.704Z,28.00
2022-07-29T05:06:53.092Z,30.93
2022-07-29T05:09:20.433Z,28.70
2022-07-29T05:11:47.662Z,31.03
2022-07-29T05:14:15.128Z,27.50
2022-07-29T05:16:44.262Z,29.43
2022-07-29T05:19:14.390Z,27.30
2022-07-29T05:21:42.370Z,28.70
2022-07-29T05:24:09.657Z,29.00
2022-07-29T05:26:36.913Z,28.63
2022-07-29T05:29:04.295Z,37.63
2022-07-29T05:31:31.660Z,31.67
2022-07-29T05:33:58.950Z,32.83
2022-07-29T05:36:26.271Z,36.83
2022-07-29T05:38:53.661Z,118.67
2022-07-29T05:41:22.031Z,31.87
2022-07-29T05:43:49.281Z,34.23
2022-07-29T05:46:17.053Z,30.80
2022-07-29T05:48:44.334Z,35.03
2022-07-29T05:51:11.732Z,37.20
2022-07-29T05:53:39.147Z,36.97
2022-07-29T05:56:06.771Z,34.40
2022-07-29T05:58:34.126Z,32.80
2022-07-29T06:01:02.012Z,34.57
2022-07-29T06:03:29.553Z,35.60
2022-07-29T06:05:56.997Z,31.40
2022-07-29T06:08:24.448Z,33.17
2022-07-29T06:10:51.731Z,32.57
2022-07-29T06:13:18.980Z,34.47
2022-07-29T06:15:46.427Z,31.50
2022-07-29T06:18:14.590Z,30.93
2022-07-29T06:20:42.031Z,29.30
2022-07-29T06:23:10.805Z,27.67
2022-07-29T06:25:38.546Z,27.10
2022-07-29T06:28:06.056Z,28.17
2022-07-29T06:30:33.556Z,27.50
2022-07-29T06:33:02.306Z,29.57
2022-07-29T06:35:38.797Z,27.03
2022-07-29T06:38:25.105Z,24.67
2022-07-29T06:41:06.971Z,28.23
2022-07-29T06:43:50.229Z,31.73
2022-07-29T06:46:19.779Z,26.63
2022-07-29T06:48:48.546Z,25.63
2022-07-29T06:51:16.269Z,27.57
2022-07-29T06:53:59.544Z,24.53
2022-07-29T06:56:39.635Z,29.47
2022-07-29T06:59:11.456Z,26.53
2022-07-29T07:01:43.096Z,27.80
2022-07-29T07:04:10.828Z,27.80
2022-07-29T07:06:38.842Z,27.47
2022-07-29T07:09:06.555Z,27.03
2022-07-29T07:11:33.944Z,23.90
2022-07-29T07:14:03.869Z,25.33
2022-07-29T07:16:32.496Z,24.03
2022-07-29T07:19:00.136Z,25.33
2022-07-29T07:21:30.233Z,25.57
2022-07-29T07:23:58.296Z,25.13
2022-07-29T07:26:26.080Z,24.60
2022-07-29T07:28:53.396Z,22.37
2022-07-29T07:31:21.178Z,26.53
2022-07-29T07:33:48.554Z,24.63
2022-07-29T07:36:16.007Z,28.13
2022-07-29T07:38:43.321Z,24.03
2022-07-29T07:41:10.608Z,25.97
2022-07-29T07:43:38.058Z,22.60
2022-07-29T07:46:05.405Z,24.23
2022-07-29T07:48:32.850Z,23.37
2022-07-29T07:51:00.167Z,24.70
2022-07-29T07:53:27.471Z,23.10
2022-07-29T07:56:11.821Z,19.10
2022-07-29T07:58:39.935Z,19.67
2022-07-29T08:01:07.437Z,17.40
2022-07-29T08:03:35.095Z,22.53
2022-07-29T08:06:02.553Z,15.93
2022-07-29T08:08:29.836Z,19.07
2022-07-29T08:10:57.392Z,16.30
2022-07-29T08:13:31.030Z,14.07
2022-07-29T08:15:59.158Z,15.87
2022-07-29T08:18:27.213Z,15.43
2022-07-29T08:20:54.600Z,17.67
2022-07-29T08:23:22.176Z,16.20
2022-07-29T08:25:50.233Z,16.93
2022-07-29T08:28:18.385Z,19.53
2022-07-29T08:30:45.848Z,14.53
2022-07-29T08:33:13.310Z,17.77
2022-07-29T08:35:41.192Z,13.43
2022-07-29T08:38:08.524Z,16.03
2022-07-29T08:40:35.868Z,17.93
2022-07-29T08:43:06.938Z,15.10
2022-07-29T08:45:48.020Z,17.97
2022-07-29T08:48:17.122Z,17.17
2022-07-29T08:50:46.511Z,14.97
2022-07-29T08:53:15.683Z,12.87
2022-07-29T08:55:46.505Z,16.13
2022-07-29T08:58:15.817Z,15.03
2022-07-29T09:00:45.494Z,16.27
2022-07-29T09:03:20.458Z,14.60
2022-07-29T09:05:48.433Z,13.03
2022-07-29T09:08:16.544Z,12.17
2022-07-29T09:10:46.937Z,12.80
2022-07-29T09:13:14.419Z,11.97
2022-07-29T09:15:41.757Z,12.73
2022-07-29T09:18:19.294Z,15.23
2022-07-29T09:21:14.899Z,13.03
2022-07-29T09:23:43.774Z,12.07
2022-07-29T09:26:11.071Z,11.83
2022-07-29T09:28:43.449Z,12.30
2022-07-29T09:31:10.865Z,13.77
2022-07-29T09:33:41.402Z,13.50
2022-07-29T09:36:09.605Z,14.67
2022-07-29T09:38:38.208Z,14.87
2022-07-29T09:41:06.902Z,13.57
2022-07-29T09:43:34.903Z,14.37
2022-07-29T09:46:15.131Z,14.50
2022-07-29T09:48:42.846Z,16.10
2022-07-29T09:51:28.462Z,13.00
2022-07-29T09:54:23.642Z,17.27
2022-07-29T09:56:51.458Z,14.30
2022-07-29T09:59:18.927Z,12.90
2022-07-29T10:01:46.363Z,14.27
2022-07-29T10:04:13.710Z,14.90
2022-07-29T10:07:04.407Z,13.30
2022-07-29T10:09:32.421Z,15.07
2022-07-29T10:12:10.167Z,13.53
2022-07-29T10:14:37.808Z,13.20
2022-07-29T10:17:05.862Z,12.63
2022-07-29T10:19:33.689Z,11.83
2022-07-29T10:22:01.717Z,10.67
2022-07-29T10:24:30.182Z,12.07
2022-07-29T10:26:58.415Z,11.20
2022-07-29T10:29:26.167Z,9.80
2022-07-29T10:31:59.516Z,11.00
2022-07-29T10:34:32.770Z,9.20
2022-07-29T10:37:10.329Z,9.17
2022-07-29T10:39:49.596Z,8.63
2022-07-29T10:42:29.591Z,6.33
2022-07-29T10:45:02.580Z,4.80
2022-07-29T10:47:32.185Z,6.23
2022-07-29T10:50:01.305Z,4.27
2022-07-29T10:53:08.742Z,4.67
2022-07-29T10:55:49.360Z,5.90
2022-07-29T10:58:25.193Z,4.63
2022-07-29T11:00:54.114Z,7.50
2022-07-29T11:03:49.497Z,3.20
2022-07-29T11:06:18.198Z,5.07
2022-07-29T11:09:15.918Z,3.17
2022-07-29T11:11:51.606Z,5.27
2022-07-29T11:14:19.909Z,3.47
2022-07-29T11:17:02.060Z,4.03
2022-07-29T11:19:30.557Z,3.83
2022-07-29T11:21:58.810Z,5.00
2022-07-29T11:24:31.895Z,3.40
2022-07-29T11:27:08.667Z,4.30
2022-07-29T11:29:40.108Z,3.22
2022-07-29T11:32:18.310Z,3.88
2022-07-29T11:34:54.627Z,4.80
2022-07-29T11:37:28.089Z,3.70
2022-07-29T11:40:01.555Z,4.70
2022-07-29T11:42:34.316Z,6.18
2022-07-29T11:45:41.701Z,5.47
2022-07-29T11:47:55.833Z,5.25
2022-07-29T11:50:31.117Z,3.25
2022-07-29T11:53:00.259Z,3.83
2022-07-29T11:55:32.416Z,3.55
2022-07-29T11:58:03.975Z,4.15
2022-07-29T12:00:43.518Z,3.85
2022-07-29T12:03:12.116Z,3.83
2022-07-29T12:05:47.894Z,3.87
2022-07-29T12:08:28.934Z,3.92
2022-07-29T12:10:56.238Z,3.90
2022-07-29T12:13:37.788Z,5.07
2022-07-29T12:16:05.776Z,4.10
2022-07-29T12:18:33.194Z,4.73
2022-07-29T12:21:03.954Z,3.77
2022-07-29T12:23:34.535Z,4.93
2022-07-29T12:26:02.862Z,3.90
2022-07-29T12:28:30.937Z,4.30
2022-07-29T12:30:58.273Z,5.10
2022-07-29T12:33:28.506Z,6.50
2022-07-29T12:36:06.888Z,4.03
2022-07-29T12:38:39.646Z,5.97
2022-07-29T12:41:07.044Z,6.13
2022-07-29T12:43:34.492Z,4.57
2022-07-29T12:46:13.130Z,6.67
2022-07-29T12:48:41.481Z,4.70
2022-07-29T12:51:09.860Z,4.17
2022-07-29T12:53:39.979Z,3.63
2022-07-29T12:56:26.709Z,4.47
2022-07-29T12:58:56.081Z,5.10
2022-07-29T13:01:23.516Z,4.60
2022-07-29T13:03:56.868Z,5.13
2022-07-29T13:06:35.928Z,3.87
2022-07-29T13:09:03.165Z,4.67
2022-07-29T13:11:34.328Z,3.73
2022-07-29T13:14:05.988Z,6.60
2022-07-29T13:16:34.470Z,4.50
2022-07-29T13:19:12.451Z,4.13
2022-07-29T13:21:40.682Z,4.00
2022-07-29T13:24:08.603Z,3.80
2022-07-29T13:26:36.662Z,4.30
2022-07-29T13:29:08.163Z,3.50
2022-07-29T13:31:35.502Z,5.40
2022-07-29T13:34:02.866Z,5.17
2022-07-29T13:36:30.206Z,3.70
2022-07-29T13:38:57.526Z,3.43
2022-07-29T13:41:24.791Z,3.67
2022-07-29T13:43:53.748Z,3.40
2022-07-29T13:46:21.140Z,3.47
2022-07-29T13:48:48.655Z,4.30
2022-07-29T13:51:15.905Z,3.53
2022-07-29T13:53:43.159Z,3.67
2022-07-29T13:56:10.541Z,4.80
2022-07-29T13:58:37.926Z,4.87
2022-07-29T14:01:05.301Z,3.90
2022-07-29T14:03:32.682Z,3.87
2022-07-29T14:06:01.351Z,4.37
2022-07-29T14:08:28.797Z,3.97
2022-07-29T14:10:56.153Z,3.53
2022-07-29T14:13:25.030Z,5.20
2022-07-29T14:15:53.908Z,4.00
2022-07-29T14:18:21.166Z,3.50
2022-07-29T14:20:48.475Z,4.20
2022-07-29T14:23:16.398Z,3.57
2022-07-29T14:25:43.786Z,5.40
2022-07-29T14:28:11.850Z,3.93
2022-07-29T14:30:42.161Z,4.00
2022-07-29T14:33:09.516Z,3.67
2022-07-29T14:35:36.757Z,4.87
2022-07-29T14:38:04.138Z,3.80
2022-07-29T14:40:31.374Z,4.70
2022-07-29T14:42:58.831Z,4.60
2022-07-29T14:45:26.135Z,4.20
2022-07-29T14:47:57.157Z,4.37
2022-07-29T14:50:31.368Z,4.03
2022-07-29T14:52:59.508Z,4.57
2022-07-29T14:55:26.818Z,5.43
2022-07-29T14:58:03.118Z,5.97
2022-07-29T15:00:35.226Z,5.97
2022-07-29T15:03:03.223Z,5.73
2022-07-29T15:05:31.246Z,4.30
2022-07-29T15:07:59.724Z,4.30
2022-07-29T15:10:28.120Z,5.87
2022-07-29T15:12:55.714Z,4.33
2022-07-29T15:15:23.011Z,5.57
2022-07-29T15:17:50.431Z,5.17
2022-07-29T15:20:17.706Z,7.20
2022-07-29T15:22:45.152Z,13.80
2022-07-29T15:25:12.382Z,9.67
2022-07-29T15:27:39.785Z,9.57
2022-07-29T15:30:07.281Z,6.80
2022-07-29T15:32:34.584Z,6.73
2022-07-29T15:35:01.802Z,6.97
2022-07-29T15:37:29.370Z,6.13
2022-07-29T15:40:16.649Z,9.27
2022-07-29T15:42:43.937Z,10.27
2022-07-29T15:45:11.417Z,10.27
2022-07-29T15:47:38.682Z,11.10
2022-07-29T15:50:07.603Z,12.53
2022-07-29T15:52:34.860Z,11.07
2022-07-29T15:55:02.258Z,11.10
2022-07-29T15:57:29.521Z,11.17
2022-07-29T15:59:57.295Z,11.73
2022-07-29T16:02:24.767Z,11.47
2022-07-29T16:04:52.157Z,12.07
2022-07-29T16:07:19.420Z,12.37
2022-07-29T16:09:52.443Z,19.77
2022-07-29T16:12:20.496Z,14.07
2022-07-29T16:14:49.376Z,13.73
2022-07-29T16:17:16.994Z,11.70
2022-07-29T16:19:45.309Z,12.03
2022-07-29T16:22:12.694Z,11.87
2022-07-29T16:24:40.005Z,13.07
2022-07-29T16:27:07.534Z,11.57
2022-07-29T16:29:36.928Z,11.20
2022-07-29T16:32:04.495Z,14.63
2022-07-29T16:34:31.858Z,12.13
2022-07-29T16:36:59.331Z,11.60
2022-07-29T16:39:26.929Z,9.90
2022-07-29T16:41:59.532Z,10.87
2022-07-29T16:44:27.873Z,9.73
2022-07-29T16:46:56.157Z,11.30
2022-07-29T16:49:26.936Z,9.67
2022-07-29T16:51:54.276Z,9.03
2022-07-29T16:54:21.631Z,9.83
2022-07-29T16:56:48.959Z,8.00
2022-07-29T16:59:16.398Z,9.20
2022-07-29T17:01:43.754Z,10.10
2022-07-29T17:04:12.066Z,8.00
2022-07-29T17:06:40.068Z,6.80
2022-07-29T17:09:08.610Z,17.77
2022-07-29T17:11:54.078Z,6.70
2022-07-29T17:14:25.716Z,7.13
2022-07-29T17:17:00.514Z,7.13
2022-07-29T17:19:30.274Z,5.73
2022-07-29T17:22:06.796Z,5.60
2022-07-29T17:24:36.501Z,6.30
2022-07-29T17:27:03.782Z,5.70
2022-07-29T17:29:31.144Z,6.67
2022-07-29T17:31:59.543Z,5.43
2022-07-29T17:34:26.882Z,6.37
2022-07-29T17:36:54.119Z,6.47
2022-07-29T17:39:21.693Z,6.50
2022-07-29T17:41:49.104Z,5.03
2022-07-29T17:44:16.432Z,6.43
2022-07-29T17:46:43.732Z,4.80
2022-07-29T17:49:11.435Z,4.70
2022-07-29T17:51:38.773Z,6.83
2022-07-29T17:54:06.243Z,8.40
2022-07-29T17:56:33.844Z,5.43
2022-07-29T17:59:06.351Z,5.63
2022-07-29T18:01:34.330Z,4.50
2022-07-29T18:04:02.976Z,4.60
2022-07-29T18:06:30.287Z,4.67
2022-07-29T18:08:57.654Z,5.90
2022-07-29T18:11:25.029Z,4.03
2022-07-29T18:13:52.455Z,5.37
2022-07-29T18:16:20.176Z,4.07
2022-07-29T18:18:47.639Z,4.83
2022-07-29T18:21:14.985Z,4.23
2022-07-29T18:23:42.364Z,4.77
2022-07-29T18:26:10.450Z,7.37
2022-07-29T18:28:37.786Z,11.33
2022-07-29T18:31:07.361Z,6.67
2022-07-29T18:33:34.717Z,4.87
2022-07-29T18:36:11.080Z,7.63
2022-07-29T18:38:40.096Z,8.30
2022-07-29T18:41:07.479Z,5.43
2022-07-29T18:43:34.874Z,6.90
2022-07-29T18:46:02.602Z,4.67
2022-07-29T18:48:29.915Z,5.73
2022-07-29T18:50:57.194Z,5.57
2022-07-29T18:53:24.491Z,6.60
2022-07-29T18:55:51.836Z,8.40
2022-07-29T18:58:19.160Z,5.63
2022-07-29T19:00:46.447Z,5.27
2022-07-29T19:03:13.850Z,5.67
2022-07-29T19:05:41.263Z,5.90
2022-07-29T19:08:08.562Z,4.97
2022-07-29T19:10:35.862Z,6.17
2022-07-29T19:13:03.292Z,7.43
2022-07-29T19:15:30.641Z,7.97
2022-07-29T19:18:01.161Z,5.93
2022-07-29T19:20:29.338Z,4.83
2022-07-29T19:22:56.900Z,6.97
2022-07-29T19:25:24.260Z,4.20
2022-07-29T19:27:51.550Z,5.63
2022-07-29T19:30:19.039Z,4.50
2022-07-29T19:32:47.916Z,4.90
2022-07-29T19:35:31.127Z,6.40
2022-07-29T19:38:00.026Z,4.70
2022-07-29T19:40:28.395Z,10.30
2022-07-29T19:42:56.030Z,7.90
2022-07-29T19:45:24.669Z,11.90
2022-07-29T19:47:52.035Z,6.23
2022-07-29T19:50:19.646Z,6.27
2022-07-29T19:52:47.197Z,7.70
2022-07-29T19:55:14.949Z,7.37
2022-07-29T19:57:42.239Z,6.33
2022-07-29T20:00:11.144Z,6.47
2022-07-29T20:02:39.398Z,6.63
2022-07-29T20:05:07.406Z,6.20
2022-07-29T20:07:34.954Z,7.00
2022-07-29T20:10:02.275Z,6.90
2022-07-29T20:12:29.515Z,9.87
2022-07-29T20:14:56.812Z,6.37
2022-07-29T20:17:24.733Z,7.60
2022-07-29T20:19:52.983Z,7.90
2022-07-29T20:22:21.055Z,5.47
2022-07-29T20:24:48.965Z,23.27
2022-07-29T20:27:16.431Z,5.40
2022-07-29T20:29:43.747Z,5.50
2022-07-29T20:32:12.450Z,7.03
2022-07-29T20:34:41.450Z,5.77
2022-07-29T20:37:14.434Z,6.70
2022-07-29T20:39:47.774Z,6.53
2022-07-29T20:42:15.637Z,7.67
2022-07-29T20:44:43.049Z,6.27
2022-07-29T20:47:10.541Z,7.93
2022-07-29T20:49:37.773Z,5.63
2022-07-29T20:52:05.102Z,7.47
2022-07-29T20:54:32.400Z,8.40
2022-07-29T20:56:59.887Z,6.43
2022-07-29T20:59:27.458Z,8.17
2022-07-29T21:01:55.558Z,4.70
2022-07-29T21:04:22.974Z,6.23
2022-07-29T21:06:58.433Z,5.33
2022-07-29T21:09:25.911Z,7.03
2022-07-29T21:11:53.251Z,6.67
2022-07-29T21:14:40.742Z,6.87
2022-07-29T21:17:08.250Z,7.60
2022-07-29T21:19:35.715Z,6.30
2022-07-29T21:22:03.307Z,5.07
2022-07-29T21:24:30.555Z,9.93
2022-07-29T21:27:21.172Z,8.07
2022-07-29T21:29:49.072Z,5.90
2022-07-29T21:32:29.927Z,5.23
2022-07-29T21:34:58.094Z,8.83
2022-07-29T21:37:25.558Z,5.20
2022-07-29T21:39:52.939Z,5.80
2022-07-29T21:42:20.344Z,8.73
2022-07-29T21:44:47.640Z,7.10
2022-07-29T21:47:14.901Z,5.77
2022-07-29T21:49:42.303Z,8.80
2022-07-29T21:52:09.669Z,7.53
2022-07-29T21:54:36.922Z,7.17
2022-07-29T21:57:05.003Z,6.57
2022-07-29T21:59:32.404Z,6.70
2022-07-29T22:02:03.450Z,5.10
2022-07-29T22:04:30.800Z,7.27
2022-07-29T22:06:58.934Z,8.40
2022-07-29T22:09:26.567Z,10.77
2022-07-29T22:11:54.270Z,7.33
2022-07-29T22:14:22.236Z,6.63
2022-07-29T22:16:49.565Z,5.73
2022-07-29T22:19:16.877Z,7.70
2022-07-29T22:21:44.347Z,6.23
2022-07-29T22:24:11.697Z,5.87
2022-07-29T22:26:39.378Z,6.47
2022-07-29T22:29:06.727Z,5.40
2022-07-29T22:31:34.053Z,6.37
2022-07-29T22:34:01.265Z,6.30
2022-07-29T22:36:28.553Z,10.80
2022-07-29T22:38:55.799Z,7.90
2022-07-29T22:41:23.098Z,5.67
2022-07-29T22:43:50.321Z,6.60
2022-07-29T22:46:17.683Z,6.40
2022-07-29T22:48:45.030Z,6.33
2022-07-29T22:51:12.328Z,6.50
2022-07-29T22:53:39.585Z,7.87
2022-07-29T22:56:07.311Z,5.47
2022-07-29T22:58:34.537Z,7.40
2022-07-29T23:01:01.860Z,9.57
2022-07-29T23:03:29.226Z,6.20
2022-07-29T23:05:56.527Z,7.70
2022-07-29T23:08:23.889Z,7.30
2022-07-29T23:10:51.148Z,7.30
2022-07-29T23:13:18.510Z,9.87
2022-07-29T23:15:45.826Z,8.43
2022-07-29T23:18:13.238Z,8.27
2022-07-29T23:20:40.518Z,7.43
2022-07-29T23:23:09.053Z,8.67
2022-07-29T23:25:36.460Z,6.93
2022-07-29T23:28:03.857Z,6.60
2022-07-29T23:30:31.187Z,6.17
2022-07-29T23:32:58.603Z,9.07
2022-07-29T23:35:25.895Z,7.23
2022-07-29T23:37:53.191Z,6.40
2022-07-29T23:40:20.481Z,7.63
2022-07-29T23:42:47.771Z,10.17
2022-07-29T23:45:15.142Z,11.07
2022-07-29T23:47:42.592Z,12.13
2022-07-29T23:50:15.255Z,11.67
2022-07-29T23:52:42.697Z,15.93
2022-07-29T23:55:36.352Z,13.90
2022-07-29T23:57:57.858Z,11.77
